Time;durP1;ratioP1;P1;durP2;ratioP2;P2;SDS_P1;SDS_P2;PMS_P1;PMS_P2;Temp;Humidity;BMP_temperature;BMP_pressure;BME280_temperature;BME280_humidity;BME280_pressure;Samples;Min_cycle;Max_cycle;Signal;HPM_P1;HPM_P2
2023/12/25 00:01:13;;;;;;;0.50;0.50;;;;;;;;;;5798026;28;20047;-88
2023/12/25 00:04:04;;;;;;;1.40;1.10;;;;;;;;;;5797832;28;20046;-87
2023/12/25 00:06:54;;;;;;;1.30;1.05;;;;;;;;;;5796861;28;20519;-88
2023/12/25 00:09:45;;;;;;;0.60;0.60;;;;;;;;;;5796402;28;20143;-88
2023/12/25 00:12:36;;;;;;;2.13;0.82;;;;;;;;;;5796568;28;20047;-88
2023/12/25 00:15:26;;;;;;;1.50;0.77;;;;;;;;;;5797684;28;20446;-88
2023/12/25 00:18:17;;;;;;;1.65;1.15;;;;;;;;;;5796396;28;20144;-88
2023/12/25 00:21:08;;;;;;;0.93;0.85;;;;;;;;;;5780397;28;20487;-88
2023/12/25 00:23:59;;;;;;;1.15;1.05;;;;;;;;;;5798199;28;20057;-86
2023/12/25 00:26:50;;;;;;;0.50;0.50;;;;;;;;;;5796383;28;20058;-88
2023/12/25 00:29:41;;;;;;;0.28;0.28;;;;;;;;;;5812006;28;20046;-87
2023/12/25 00:32:32;;;;;;;1.02;0.60;;;;;;;;;;5797199;28;20050;-88
2023/12/25 00:35:23;;;;;;;0.55;0.52;;;;;;;;;;5797251;28;20050;-87
2023/12/25 00:38:13;;;;;;;2.70;0.98;;;;;;;;;;5797019;28;20051;-87
2023/12/25 00:41:04;;;;;;;0.70;0.63;;;;;;;;;;5812035;28;20046;-88
2023/12/25 00:43:55;;;;;;;1.25;0.70;;;;;;;;;;5797518;28;20413;-87
2023/12/25 00:46:46;;;;;;;0.57;0.57;;;;;;;;;;5795790;28;20043;-87
2023/12/25 00:49:36;;;;;;;0.88;0.70;;;;;;;;;;5809600;28;20047;-87
2023/12/25 00:52:27;;;;;;;0.43;0.30;;;;;;;;;;5795542;28;20391;-88
2023/12/25 00:55:18;;;;;;;1.88;0.95;;;;;;;;;;5796828;28;20058;-88
2023/12/25 00:58:09;;;;;;;0.88;0.70;;;;;;;;;;5795456;28;20059;-87
2023/12/25 01:01:00;;;;;;;0.25;0.25;;;;;;;;;;5795983;28;20054;-87
2023/12/25 01:03:51;;;;;;;0.55;0.55;;;;;;;;;;5768100;28;20051;-87
2023/12/25 01:06:41;;;;;;;1.40;0.85;;;;;;;;;;5788681;28;20055;-88
2023/12/25 01:09:32;;;;;;;1.40;1.05;;;;;;;;;;5756798;28;20096;-88
2023/12/25 01:12:23;;;;;;;1.15;0.85;;;;;;;;;;5788563;28;20051;-87
2023/12/25 01:15:14;;;;;;;1.77;0.38;;;;;;;;;;5773810;28;20054;-87
2023/12/25 01:18:04;;;;;;;0.60;0.43;;;;;;;;;;5774137;28;20056;-86
2023/12/25 01:20:55;;;;;;;0.98;0.57;;;;;;;;;;5788834;28;20082;-87
2023/12/25 01:23:46;;;;;;;1.75;1.05;;;;;;;;;;5773813;28;20493;-88
2023/12/25 01:26:37;;;;;;;0.82;0.82;;;;;;;;;;5773660;28;20054;-88
2023/12/25 01:29:28;;;;;;;0.50;0.50;;;;;;;;;;5773292;28;20058;-88
2023/12/25 01:32:18;;;;;;;0.98;0.52;;;;;;;;;;5788138;28;20194;-88
2023/12/25 01:35:10;;;;;;;0.47;0.47;;;;;;;;;;5788270;28;20055;-89
2023/12/25 01:38:00;;;;;;;0.55;0.55;;;;;;;;;;5773810;28;20417;-88
2023/12/25 01:40:51;;;;;;;0.82;0.82;;;;;;;;;;5788277;28;20058;-88
2023/12/25 01:43:45;;;;;;;0.30;0.30;;;;;;;;;;5773449;28;20099;-88
2023/12/25 01:46:35;;;;;;;0.55;0.55;;;;;;;;;;5787747;28;20043;-88
2023/12/25 01:49:26;;;;;;;1.65;0.40;;;;;;;;;;5788054;28;20413;-88
2023/12/25 01:52:18;;;;;;;0.30;0.30;;;;;;;;;;5788038;28;20055;-87
2023/12/25 01:55:09;;;;;;;0.75;0.52;;;;;;;;;;5787847;28;20059;-88
2023/12/25 01:58:00;;;;;;;0.40;0.30;;;;;;;;;;5788479;28;20407;-88
2023/12/25 02:00:50;;;;;;;0.35;0.30;;;;;;;;;;5788063;28;20043;-87
2023/12/25 02:03:41;;;;;;;1.23;0.80;;;;;;;;;;5787820;28;20055;-88
2023/12/25 02:06:34;;;;;;;0.28;0.28;;;;;;;;;;5772060;28;20043;-88
2023/12/25 02:09:26;;;;;;;0.45;0.45;;;;;;;;;;5786796;28;20520;-87
2023/12/25 02:12:17;;;;;;;0.20;0.20;;;;;;;;;;5787797;28;20052;-87
2023/12/25 02:15:08;;;;;;;0.50;0.40;;;;;;;;;;5772624;28;20058;-87
2023/12/25 02:18:00;;;;;;;0.30;0.30;;;;;;;;;;5788227;28;20417;-88
2023/12/25 02:20:51;;;;;;;0.10;0.10;;;;;;;;;;5772834;28;20666;-87
2023/12/25 02:23:46;;;;;;;0.50;0.50;;;;;;;;;;5772429;28;20398;-87
2023/12/25 02:26:37;;;;;;;0.68;0.20;;;;;;;;;;5786977;28;20055;-87
2023/12/25 02:29:28;;;;;;;0.52;0.52;;;;;;;;;;5771015;28;20098;-88
2023/12/25 02:32:19;;;;;;;0.52;0.52;;;;;;;;;;5772569;28;20138;-88
2023/12/25 02:35:09;;;;;;;0.10;0.10;;;;;;;;;;5772748;28;20058;-87
2023/12/25 02:38:00;;;;;;;0.43;0.43;;;;;;;;;;5773471;28;20102;-88
2023/12/25 02:40:51;;;;;;;0.60;0.60;;;;;;;;;;5787496;28;20425;-87
2023/12/25 02:43:42;;;;;;;0.85;0.60;;;;;;;;;;5786821;28;20051;-88
2023/12/25 02:46:32;;;;;;;0.70;0.70;;;;;;;;;;5787147;28;20047;-85
2023/12/25 02:49:23;;;;;;;0.45;0.45;;;;;;;;;;5787634;28;20062;-88
2023/12/25 02:52:14;;;;;;;0.40;0.40;;;;;;;;;;5772607;28;20416;-87
2023/12/25 02:55:05;;;;;;;0.40;0.40;;;;;;;;;;5772624;28;20457;-86
2023/12/25 02:57:56;;;;;;;0.82;0.65;;;;;;;;;;5787495;28;20059;-87
2023/12/25 03:00:47;;;;;;;1.08;0.60;;;;;;;;;;5771042;28;20054;-87
2023/12/25 03:03:38;;;;;;;0.17;0.15;;;;;;;;;;5786876;28;20122;-86
2023/12/25 03:06:29;;;;;;;0.43;0.43;;;;;;;;;;5786393;28;20059;-88
2023/12/25 03:09:20;;;;;;;0.40;0.30;;;;;;;;;;5786613;28;20051;-87
2023/12/25 03:12:11;;;;;;;0.43;0.43;;;;;;;;;;5786304;28;20051;-86
2023/12/25 03:15:02;;;;;;;0.25;0.25;;;;;;;;;;5786542;28;20063;-85
2023/12/25 03:17:52;;;;;;;0.98;0.43;;;;;;;;;;5786894;28;20055;-86
2023/12/25 03:20:44;;;;;;;0.30;0.30;;;;;;;;;;5787255;28;20047;-87
2023/12/25 03:23:34;;;;;;;0.82;0.50;;;;;;;;;;5790764;28;20501;-87
2023/12/25 03:26:25;;;;;;;0.52;0.35;;;;;;;;;;5790799;28;20125;-86
2023/12/25 03:29:16;;;;;;;0.38;0.38;;;;;;;;;;5790794;28;20051;-86
2023/12/25 03:32:07;;;;;;;0.55;0.35;;;;;;;;;;5790543;28;20074;-85
2023/12/25 03:34:58;;;;;;;0.90;0.50;;;;;;;;;;5791268;28;20048;-87
2023/12/25 03:37:48;;;;;;;1.17;0.98;;;;;;;;;;5790606;28;20525;-85
2023/12/25 03:40:39;;;;;;;0.10;0.10;;;;;;;;;;5790636;28;20048;-86
2023/12/25 03:43:30;;;;;;;0.20;0.20;;;;;;;;;;5790230;28;20458;-86
2023/12/25 03:46:21;;;;;;;0.52;0.47;;;;;;;;;;5790201;28;20047;-87
2023/12/25 03:49:12;;;;;;;0.77;0.77;;;;;;;;;;5774349;28;20050;-87
2023/12/25 03:52:03;;;;;;;0.22;0.20;;;;;;;;;;5790019;28;20055;-87
2023/12/25 03:54:54;;;;;;;1.02;0.63;;;;;;;;;;5790631;28;20066;-87
2023/12/25 03:57:45;;;;;;;0.35;0.30;;;;;;;;;;5790124;28;20046;-88
2023/12/25 04:00:35;;;;;;;3.25;0.52;;;;;;;;;;5789959;28;20046;-87
2023/12/25 04:03:26;;;;;;;0.30;0.30;;;;;;;;;;5775366;28;20075;-87
2023/12/25 04:06:25;;;;;;;0.40;0.40;;;;;;;;;;5775294;28;20054;-87
2023/12/25 04:09:16;;;;;;;0.50;0.50;;;;;;;;;;5789937;28;20059;-87
2023/12/25 04:12:06;;;;;;;0.63;0.52;;;;;;;;;;5773664;28;20055;-87
2023/12/25 04:14:57;;;;;;;0.90;0.55;;;;;;;;;;5775486;28;20089;-87
2023/12/25 04:17:48;;;;;;;0.43;0.43;;;;;;;;;;5789826;28;20449;-87
2023/12/25 04:20:39;;;;;;;0.22;0.22;;;;;;;;;;5789740;28;20055;-86
2023/12/25 04:23:30;;;;;;;0.50;0.50;;;;;;;;;;5775028;28;20047;-87
2023/12/25 04:26:22;;;;;;;0.77;0.52;;;;;;;;;;5775078;28;20382;-87
2023/12/25 04:29:13;;;;;;;0.40;0.40;;;;;;;;;;5775135;28;20051;-86
2023/12/25 04:32:05;;;;;;;0.47;0.47;;;;;;;;;;5773301;28;20154;-86
2023/12/25 04:34:55;;;;;;;0.57;0.57;;;;;;;;;;5775377;28;20435;-87
2023/12/25 04:37:46;;;;;;;0.17;0.17;;;;;;;;;;5773588;28;20392;-86
2023/12/25 04:40:37;;;;;;;3.45;1.65;;;;;;;;;;5789180;28;20410;-86
2023/12/25 04:43:28;;;;;;;2.20;0.50;;;;;;;;;;5789362;28;20501;-87
2023/12/25 04:46:19;;;;;;;0.50;0.50;;;;;;;;;;5789012;28;20047;-86
2023/12/25 04:49:10;;;;;;;0.57;0.57;;;;;;;;;;5789435;28;20062;-86
2023/12/25 04:52:02;;;;;;;0.10;0.10;;;;;;;;;;5788918;28;20050;-84
2023/12/25 04:54:53;;;;;;;0.85;0.45;;;;;;;;;;5789817;28;20055;-86
2023/12/25 04:57:44;;;;;;;0.30;0.30;;;;;;;;;;5773004;28;20047;-86
2023/12/25 05:00:35;;;;;;;0.20;0.20;;;;;;;;;;5788797;28;20107;-87
2023/12/25 05:03:26;;;;;;;0.15;0.15;;;;;;;;;;5774316;28;20047;-86
2023/12/25 05:06:17;;;;;;;0.20;0.20;;;;;;;;;;5774379;28;20138;-87
2023/12/25 05:09:09;;;;;;;0.98;0.85;;;;;;;;;;5788756;28;20047;-85
2023/12/25 05:12:00;;;;;;;1.73;1.05;;;;;;;;;;5774559;28;20415;-88
2023/12/25 05:14:51;;;;;;;0.55;0.35;;;;;;;;;;5788747;28;20058;-86
2023/12/25 05:17:42;;;;;;;0.75;0.75;;;;;;;;;;5788699;28;20055;-86
2023/12/25 05:20:33;;;;;;;0.22;0.22;;;;;;;;;;5773898;28;20108;-86
2023/12/25 05:23:24;;;;;;;0.50;0.50;;;;;;;;;;5773782;28;20051;-87
2023/12/25 05:26:14;;;;;;;2.28;0.60;;;;;;;;;;5772426;28;20137;-85
2023/12/25 05:29:05;;;;;;;0.40;0.40;;;;;;;;;;5788349;28;20058;-86
2023/12/25 05:31:57;;;;;;;1.00;0.93;;;;;;;;;;5774184;28;20047;-86
2023/12/25 05:34:48;;;;;;;1.48;0.88;;;;;;;;;;5772329;28;20055;-85
2023/12/25 05:37:39;;;;;;;0.20;0.20;;;;;;;;;;5773354;28;20134;-88
2023/12/25 05:40:30;;;;;;;0.45;0.45;;;;;;;;;;5772323;28;20043;-86
2023/12/25 05:43:20;;;;;;;0.30;0.30;;;;;;;;;;5787125;28;20058;-86
2023/12/25 05:46:12;;;;;;;0.20;0.20;;;;;;;;;;5772171;28;20055;-85
2023/12/25 05:49:03;;;;;;;0.20;0.20;;;;;;;;;;5787884;28;20051;-86
2023/12/25 05:51:54;;;;;;;0.80;0.80;;;;;;;;;;5788200;28;20469;-86
2023/12/25 05:54:45;;;;;;;3.90;0.73;;;;;;;;;;5771902;28;20571;-87
2023/12/25 05:57:36;;;;;;;0.55;0.55;;;;;;;;;;5773265;28;20390;-86
2023/12/25 06:00:27;;;;;;;1.10;1.00;;;;;;;;;;5787706;28;20043;-86
2023/12/25 06:03:17;;;;;;;1.95;0.65;;;;;;;;;;5773199;28;20053;-86
2023/12/25 06:06:08;;;;;;;0.52;0.43;;;;;;;;;;5787399;28;20078;-86
2023/12/25 06:08:59;;;;;;;0.43;0.40;;;;;;;;;;5773431;28;20101;-86
2023/12/25 06:11:50;;;;;;;0.32;0.30;;;;;;;;;;5787452;28;20182;-86
2023/12/25 06:14:41;;;;;;;0.45;0.45;;;;;;;;;;5787323;28;20539;-87
2023/12/25 06:17:32;;;;;;;0.30;0.30;;;;;;;;;;5771563;28;20051;-86
2023/12/25 06:20:25;;;;;;;0.35;0.30;;;;;;;;;;5771569;28;20413;-85
2023/12/25 06:23:15;;;;;;;0.28;0.28;;;;;;;;;;5787243;28;20051;-85
2023/12/25 06:26:06;;;;;;;0.60;0.60;;;;;;;;;;5787090;28;20051;-85
2023/12/25 06:28:57;;;;;;;1.52;0.82;;;;;;;;;;5771917;28;20532;-85
2023/12/25 06:31:48;;;;;;;1.00;0.88;;;;;;;;;;5772349;28;20058;-85
2023/12/25 06:34:39;;;;;;;3.78;0.82;;;;;;;;;;5772643;28;20051;-87
2023/12/25 06:37:29;;;;;;;0.75;0.75;;;;;;;;;;5772656;28;20075;-86
2023/12/25 06:40:20;;;;;;;8.70;1.67;;;;;;;;;;5787185;28;20490;-86
2023/12/25 06:43:11;;;;;;;1.17;0.63;;;;;;;;;;5787014;28;20066;-86
2023/12/25 06:46:02;;;;;;;4.95;0.47;;;;;;;;;;5786572;28;20059;-85
2023/12/25 06:48:52;;;;;;;0.68;0.43;;;;;;;;;;5773818;28;20077;-86
2023/12/25 06:51:45;;;;;;;1.10;0.60;;;;;;;;;;5772284;28;20043;-86
2023/12/25 06:54:36;;;;;;;0.40;0.40;;;;;;;;;;5769742;28;20039;-86
2023/12/25 06:57:26;;;;;;;0.30;0.30;;;;;;;;;;5786629;28;20047;-86
2023/12/25 07:00:17;;;;;;;0.68;0.68;;;;;;;;;;5771850;28;20062;-86
2023/12/25 07:03:09;;;;;;;1.88;1.25;;;;;;;;;;5786273;28;20066;-85
2023/12/25 07:05:59;;;;;;;0.75;0.75;;;;;;;;;;5786777;28;20054;-86
2023/12/25 07:08:52;;;;;;;0.93;0.93;;;;;;;;;;5786510;28;20059;-86
2023/12/25 07:11:43;;;;;;;3.50;1.20;;;;;;;;;;5786162;28;20047;-87
2023/12/25 07:14:33;;;;;;;0.95;0.95;;;;;;;;;;5786410;28;20122;-86
2023/12/25 07:17:24;;;;;;;0.57;0.50;;;;;;;;;;5783215;28;20047;-87
2023/12/25 07:20:15;;;;;;;1.95;1.05;;;;;;;;;;5771747;28;20047;-85
2023/12/25 07:23:06;;;;;;;1.17;1.08;;;;;;;;;;5771489;28;20055;-85
2023/12/25 07:25:57;;;;;;;0.35;0.35;;;;;;;;;;5772064;28;20054;-87
2023/12/25 07:28:48;;;;;;;5.57;1.05;;;;;;;;;;5770267;28;20560;-87
2023/12/25 07:31:41;;;;;;;0.98;0.93;;;;;;;;;;5786028;28;20047;-86
2023/12/25 07:34:32;;;;;;;1.75;1.38;;;;;;;;;;5786303;28;20413;-85
2023/12/25 07:37:23;;;;;;;1.33;1.23;;;;;;;;;;5770327;28;20058;-86
2023/12/25 07:40:14;;;;;;;0.73;0.70;;;;;;;;;;5786178;28;20058;-86
2023/12/25 07:43:07;;;;;;;0.88;0.88;;;;;;;;;;5786311;28;20055;-85
2023/12/25 07:45:57;;;;;;;1.23;1.02;;;;;;;;;;5786070;28;20047;-86
2023/12/25 07:48:48;;;;;;;0.85;0.60;;;;;;;;;;5786023;28;20059;-85
2023/12/25 07:51:39;;;;;;;0.35;0.20;;;;;;;;;;5771254;28;20043;-85
2023/12/25 07:54:31;;;;;;;0.63;0.47;;;;;;;;;;5785825;28;20051;-85
2023/12/25 07:57:22;;;;;;;2.55;1.95;;;;;;;;;;5786073;28;20887;-85
2023/12/25 08:00:14;;;;;;;0.60;0.60;;;;;;;;;;5771294;28;20052;-85
2023/12/25 08:03:05;;;;;;;0.60;0.60;;;;;;;;;;5785976;28;20047;-86
2023/12/25 08:05:55;;;;;;;3.55;2.55;;;;;;;;;;5771100;28;20051;-85
2023/12/25 08:08:48;;;;;;;2.47;1.63;;;;;;;;;;5790073;28;20719;-85
2023/12/25 08:11:39;;;;;;;1.23;1.13;;;;;;;;;;5789758;28;20047;-86
2023/12/25 08:14:30;;;;;;;1.30;0.93;;;;;;;;;;5790087;28;20224;-86
2023/12/25 08:17:21;;;;;;;4.10;0.60;;;;;;;;;;5775202;28;20174;-85
2023/12/25 08:20:12;;;;;;;0.43;0.35;;;;;;;;;;5790029;28;20066;-86
2023/12/25 08:23:03;;;;;;;0.57;0.57;;;;;;;;;;5775034;28;20051;-84
2023/12/25 08:25:54;;;;;;;1.20;1.00;;;;;;;;;;5790375;28;20062;-86
2023/12/25 08:28:46;;;;;;;2.85;1.48;;;;;;;;;;5789814;28;20054;-86
2023/12/25 08:31:39;;;;;;;6.38;1.85;;;;;;;;;;5789269;28;20039;-84
2023/12/25 08:34:30;;;;;;;7.55;2.03;;;;;;;;;;5775299;28;20055;-85
2023/12/25 08:37:21;;;;;;;2.50;1.63;;;;;;;;;;5789598;28;20114;-87
2023/12/25 08:40:11;;;;;;;0.95;0.85;;;;;;;;;;5774907;28;20059;-83
2023/12/25 08:43:02;;;;;;;0.70;0.70;;;;;;;;;;5789754;28;20053;-85
2023/12/25 08:45:53;;;;;;;3.42;0.95;;;;;;;;;;5789739;28;20154;-86
2023/12/25 08:48:44;;;;;;;1.45;1.27;;;;;;;;;;5773339;28;20050;-85
2023/12/25 08:51:38;;;;;;;2.13;1.02;;;;;;;;;;5789118;28;20528;-86
2023/12/25 08:54:29;;;;;;;3.20;1.88;;;;;;;;;;5788916;28;20047;-86
2023/12/25 08:57:19;;;;;;;3.47;1.52;;;;;;;;;;5789191;28;20055;-86
2023/12/25 09:00:11;;;;;;;2.05;1.10;;;;;;;;;;5774645;28;20101;-87
2023/12/25 09:03:02;;;;;;;11.00;2.03;;;;;;;;;;5789009;28;20074;-87
2023/12/25 09:05:54;;;;;;;1.60;1.08;;;;;;;;;;5789559;28;20051;-87
2023/12/25 09:08:46;;;;;;;0.80;0.80;;;;;;;;;;5788540;28;20051;-86
2023/12/25 09:11:37;;;;;;;2.90;1.60;;;;;;;;;;5788739;28;20054;-87
2023/12/25 09:14:28;;;;;;;5.53;2.00;;;;;;;;;;5788738;28;20051;-87
2023/12/25 09:17:19;;;;;;;2.50;1.95;;;;;;;;;;5788017;28;20417;-87
2023/12/25 09:20:11;;;;;;;4.03;2.33;;;;;;;;;;5773638;28;20050;-86
2023/12/25 09:23:01;;;;;;;4.30;2.50;;;;;;;;;;5788545;28;20058;-85
2023/12/25 09:25:52;;;;;;;2.80;2.35;;;;;;;;;;5789003;28;20062;-86
2023/12/25 09:28:43;;;;;;;3.58;2.15;;;;;;;;;;5788350;28;20051;-87
2023/12/25 09:31:33;;;;;;;6.03;2.75;;;;;;;;;;5772247;28;20043;-86
2023/12/25 09:34:24;;;;;;;2.70;2.30;;;;;;;;;;5788394;28;20058;-86
2023/12/25 09:37:19;;;;;;;7.10;5.60;;;;;;;;;;5787990;28;20051;-87
2023/12/25 09:40:11;;;;;;;1.48;1.13;;;;;;;;;;5773595;28;20058;-87
2023/12/25 09:43:02;;;;;;;6.78;3.78;;;;;;;;;;5788197;28;20059;-86
2023/12/25 09:45:54;;;;;;;8.90;5.72;;;;;;;;;;5773770;28;20542;-86
2023/12/25 09:48:47;;;;;;;3.33;2.55;;;;;;;;;;5787827;28;20048;-87
2023/12/25 09:51:39;;;;;;;2.67;1.90;;;;;;;;;;5773213;28;20055;-86
2023/12/25 09:54:29;;;;;;;2.50;1.50;;;;;;;;;;5772116;28;20047;-87
2023/12/25 09:57:22;;;;;;;3.50;2.45;;;;;;;;;;5788012;28;20414;-87
2023/12/25 10:00:13;;;;;;;1.70;1.33;;;;;;;;;;5787767;28;20055;-87
2023/12/25 10:03:04;;;;;;;3.63;3.00;;;;;;;;;;5781709;28;20075;-87
2023/12/25 10:05:55;;;;;;;2.97;1.60;;;;;;;;;;5788046;28;20524;-87
2023/12/25 10:08:47;;;;;;;7.18;3.15;;;;;;;;;;5787814;28;20047;-87
2023/12/25 10:11:37;;;;;;;3.13;2.45;;;;;;;;;;5772747;28;20478;-88
2023/12/25 10:14:29;;;;;;;4.95;3.03;;;;;;;;;;5772763;28;20130;-87
2023/12/25 10:17:20;;;;;;;5.10;3.47;;;;;;;;;;5787377;28;20526;-87
2023/12/25 10:20:18;;;;;;;5.35;3.42;;;;;;;;;;5787461;28;20106;-89
2023/12/25 10:23:13;;;;;;;6.32;2.20;;;;;;;;;;5771290;28;20063;-87
2023/12/25 10:26:13;;;;;;;3.80;1.70;;;;;;;;;;5785842;28;20628;-85
2023/12/25 10:29:08;;;;;;;7.97;4.82;;;;;;;;;;5772284;28;20047;-87
2023/12/25 10:32:17;;;;;;;11.02;2.88;;;;;;;;;;5787656;28;20125;-86
2023/12/25 10:35:15;;;;;;;2.80;2.45;;;;;;;;;;5786633;28;20062;-86
2023/12/25 10:38:07;;;;;;;4.43;3.45;;;;;;;;;;5786714;28;20137;-86
2023/12/25 10:40:58;;;;;;;7.18;2.58;;;;;;;;;;5771456;28;20070;-87
2023/12/25 10:44:03;;;;;;;2.95;1.90;;;;;;;;;;5786865;28;20061;-87
2023/12/25 10:46:54;;;;;;;2.88;1.27;;;;;;;;;;5786500;28;20047;-87
2023/12/25 10:49:46;;;;;;;2.53;1.67;;;;;;;;;;5771971;28;20039;-87
2023/12/25 10:52:39;;;;;;;6.57;2.05;;;;;;;;;;5786445;28;20053;-87
2023/12/25 10:55:44;;;;;;;8.00;2.92;;;;;;;;;;5786743;28;20460;-87
2023/12/25 10:58:35;;;;;;;1.58;1.02;;;;;;;;;;5772014;28;20043;-86
2023/12/25 11:01:27;;;;;;;1.92;1.55;;;;;;;;;;5786567;28;20398;-86
2023/12/25 11:04:20;;;;;;;2.08;1.80;;;;;;;;;;5786133;28;20051;-87
2023/12/25 11:07:13;;;;;;;4.65;1.50;;;;;;;;;;5771786;28;20055;-87
2023/12/25 11:10:06;;;;;;;10.73;2.58;;;;;;;;;;5786473;28;20051;-88
2023/12/25 11:12:58;;;;;;;1.42;1.02;;;;;;;;;;5787030;28;20051;-87
2023/12/25 11:15:48;;;;;;;3.00;2.00;;;;;;;;;;5786297;28;20054;-86
2023/12/25 11:18:39;;;;;;;2.67;2.08;;;;;;;;;;5771840;28;20054;-86
2023/12/25 11:21:33;;;;;;;2.00;1.33;;;;;;;;;;5786327;28;20051;-88
2023/12/25 11:24:28;;;;;;;3.88;2.00;;;;;;;;;;5770680;28;20053;-86
2023/12/25 11:27:20;;;;;;;1.92;1.45;;;;;;;;;;5786334;28;20391;-84
2023/12/25 11:30:12;;;;;;;3.60;2.00;;;;;;;;;;5770218;28;20047;-87
2023/12/25 11:33:03;;;;;;;7.38;1.90;;;;;;;;;;5786173;28;20055;-85
2023/12/25 11:35:56;;;;;;;6.90;3.35;;;;;;;;;;5786633;28;20062;-86
2023/12/25 11:38:56;;;;;;;2.47;1.58;;;;;;;;;;5786506;28;20071;-86
2023/12/25 11:41:49;;;;;;;13.50;2.65;;;;;;;;;;5772790;28;20075;-87
2023/12/25 11:44:40;;;;;;;4.97;1.27;;;;;;;;;;5790553;28;20050;-85
2023/12/25 11:47:54;;;;;;;2.97;1.48;;;;;;;;;;5790733;28;20046;-87
2023/12/25 11:50:45;;;;;;;1.73;1.45;;;;;;;;;;5774606;28;20110;-85
2023/12/25 11:53:38;;;;;;;3.83;2.83;;;;;;;;;;5790185;28;20453;-85
2023/12/25 11:56:31;;;;;;;3.85;2.40;;;;;;;;;;5790318;28;20047;-86
2023/12/25 11:59:22;;;;;;;2.92;1.73;;;;;;;;;;5758457;28;20057;-84
2023/12/25 12:02:13;;;;;;;4.35;2.20;;;;;;;;;;5790337;28;20055;-85
2023/12/25 12:05:04;;;;;;;3.10;2.10;;;;;;;;;;5790195;28;20063;-86
2023/12/25 12:07:55;;;;;;;3.63;2.30;;;;;;;;;;5776157;28;20168;-87
2023/12/25 12:10:46;;;;;;;3.65;2.90;;;;;;;;;;5775391;28;20118;-84
2023/12/25 12:13:37;;;;;;;2.67;2.00;;;;;;;;;;5774966;28;20055;-86
2023/12/25 12:16:27;;;;;;;2.08;1.52;;;;;;;;;;5789871;28;20047;-87
2023/12/25 12:19:18;;;;;;;5.65;2.28;;;;;;;;;;5773936;28;20059;-86
2023/12/25 12:22:09;;;;;;;1.50;0.95;;;;;;;;;;5775178;28;20051;-86
2023/12/25 12:25:19;;;;;;;3.05;2.75;;;;;;;;;;5790116;28;20058;-87
2023/12/25 12:28:10;;;;;;;2.55;1.35;;;;;;;;;;5757990;28;20054;-87
2023/12/25 12:31:01;;;;;;;2.55;1.60;;;;;;;;;;5789685;28;20047;-86
2023/12/25 12:33:52;;;;;;;1.38;1.27;;;;;;;;;;5775349;28;20209;-88
2023/12/25 12:36:43;;;;;;;3.90;2.10;;;;;;;;;;5789282;28;20466;-88
2023/12/25 12:39:34;;;;;;;2.42;1.67;;;;;;;;;;5789369;28;20382;-87
2023/12/25 12:42:24;;;;;;;6.80;3.03;;;;;;;;;;5789357;28;20461;-87
2023/12/25 12:45:15;;;;;;;3.85;1.73;;;;;;;;;;5774494;28;20071;-89
2023/12/25 12:48:06;;;;;;;3.15;2.10;;;;;;;;;;5773149;28;20048;-86
2023/12/25 12:50:57;;;;;;;3.88;2.22;;;;;;;;;;5774767;28;20130;-87
2023/12/25 12:53:48;;;;;;;0.80;0.80;;;;;;;;;;5789125;28;20062;-87
2023/12/25 12:56:39;;;;;;;2.35;1.55;;;;;;;;;;5788948;28;20409;-87
2023/12/25 12:59:30;;;;;;;2.20;1.30;;;;;;;;;;5789067;28;20047;-87
2023/12/25 13:02:21;;;;;;;0.75;0.75;;;;;;;;;;5788973;28;20087;-87
2023/12/25 13:05:12;;;;;;;0.63;0.63;;;;;;;;;;5788818;28;20055;-86
2023/12/25 13:08:03;;;;;;;1.15;1.08;;;;;;;;;;5788721;28;20051;-86
2023/12/25 13:10:54;;;;;;;1.60;0.98;;;;;;;;;;5774657;28;20214;-86
2023/12/25 13:13:45;;;;;;;1.25;1.10;;;;;;;;;;5788376;28;20066;-85
2023/12/25 13:16:36;;;;;;;2.72;1.67;;;;;;;;;;5773882;28;20053;-86
2023/12/25 13:19:27;;;;;;;1.55;1.02;;;;;;;;;;5788193;28;20047;-86
2023/12/25 13:22:18;;;;;;;2.45;1.33;;;;;;;;;;5788702;28;20509;-86
2023/12/25 13:25:09;;;;;;;1.77;1.10;;;;;;;;;;5772286;28;20126;-87
2023/12/25 13:27:59;;;;;;;1.08;0.90;;;;;;;;;;5788822;28;20488;-86
2023/12/25 13:30:50;;;;;;;1.90;1.20;;;;;;;;;;5773457;28;20058;-86
2023/12/25 13:33:43;;;;;;;5.10;2.35;;;;;;;;;;5787922;28;20054;-86
2023/12/25 13:36:34;;;;;;;3.25;1.50;;;;;;;;;;5773586;28;20040;-85
2023/12/25 13:39:25;;;;;;;1.83;1.08;;;;;;;;;;5787972;28;20387;-87
2023/12/25 13:42:16;;;;;;;1.58;1.10;;;;;;;;;;5787907;28;20055;-86
2023/12/25 13:45:07;;;;;;;2.70;1.38;;;;;;;;;;5787685;28;20055;-86
2023/12/25 13:47:58;;;;;;;2.47;2.28;;;;;;;;;;5781534;28;20109;-86
2023/12/25 13:50:50;;;;;;;2.00;1.63;;;;;;;;;;5772223;28;20066;-86
2023/12/25 13:53:40;;;;;;;2.25;1.83;;;;;;;;;;5787595;28;20142;-86
2023/12/25 13:56:31;;;;;;;6.72;3.78;;;;;;;;;;5787409;28;20039;-86
2023/12/25 13:59:22;;;;;;;3.33;2.72;;;;;;;;;;5787522;28;20573;-85
2023/12/25 14:02:13;;;;;;;15.13;10.50;;;;;;;;;;5771506;28;20057;-85
2023/12/25 14:05:05;;;;;;;2.90;2.58;;;;;;;;;;5787128;28;20572;-85
2023/12/25 14:07:56;;;;;;;5.65;1.85;;;;;;;;;;5788121;28;20055;-85
2023/12/25 14:10:47;;;;;;;2.40;1.90;;;;;;;;;;5772793;28;20528;-84
2023/12/25 14:13:39;;;;;;;1.38;1.05;;;;;;;;;;5787104;28;20454;-87
2023/12/25 14:16:30;;;;;;;2.40;1.15;;;;;;;;;;5787254;28;20051;-85
2023/12/25 14:19:21;;;;;;;2.38;1.27;;;;;;;;;;5787205;28;20082;-85
2023/12/25 14:22:12;;;;;;;1.05;0.90;;;;;;;;;;5787091;28;20528;-85
2023/12/25 14:25:04;;;;;;;3.10;1.25;;;;;;;;;;5772457;28;20058;-85
2023/12/25 14:27:54;;;;;;;2.55;1.00;;;;;;;;;;5773140;28;20134;-85
2023/12/25 14:30:48;;;;;;;11.13;4.13;;;;;;;;;;5786814;28;20062;-85
2023/12/25 14:33:43;;;;;;;1.35;1.25;;;;;;;;;;5786865;28;20051;-85
2023/12/25 14:36:37;;;;;;;1.40;1.23;;;;;;;;;;5785968;28;20050;-85
2023/12/25 14:39:27;;;;;;;1.77;1.48;;;;;;;;;;5770759;28;20050;-88
2023/12/25 14:42:18;;;;;;;1.00;0.73;;;;;;;;;;5786844;28;20501;-86
2023/12/25 14:45:09;;;;;;;0.40;0.40;;;;;;;;;;5772231;28;20055;-86
2023/12/25 14:48:00;;;;;;;1.45;1.23;;;;;;;;;;5787293;28;20062;-86
2023/12/25 14:50:52;;;;;;;2.08;1.90;;;;;;;;;;5770930;28;20129;-87
2023/12/25 14:53:43;;;;;;;8.18;2.17;;;;;;;;;;5786533;28;20054;-87
2023/12/25 14:56:35;;;;;;;5.68;2.72;;;;;;;;;;5771874;28;20391;-85
2023/12/25 14:59:26;;;;;;;8.85;4.80;;;;;;;;;;5786858;28;20122;-85
2023/12/25 15:02:17;;;;;;;10.85;4.63;;;;;;;;;;5786648;28;20051;-84
2023/12/25 15:05:08;;;;;;;5.72;4.05;;;;;;;;;;5772273;28;20065;-85
2023/12/25 15:07:59;;;;;;;8.27;4.95;;;;;;;;;;5770996;28;20102;-85
2023/12/25 15:10:50;;;;;;;5.43;3.10;;;;;;;;;;5786587;28;20521;-86
2023/12/25 15:13:41;;;;;;;0.82;0.82;;;;;;;;;;5786085;28;20051;-86
2023/12/25 15:16:32;;;;;;;2.42;1.90;;;;;;;;;;5785589;28;20043;-88
2023/12/25 15:19:22;;;;;;;2.17;0.88;;;;;;;;;;5771641;28;20129;-85
2023/12/25 15:22:13;;;;;;;0.57;0.57;;;;;;;;;;5770298;28;20059;-86
2023/12/25 15:25:05;;;;;;;1.30;0.70;;;;;;;;;;5771631;28;20066;-85
2023/12/25 15:27:56;;;;;;;0.90;0.73;;;;;;;;;;5786891;28;20497;-86
2023/12/25 15:30:48;;;;;;;2.75;0.95;;;;;;;;;;5771533;28;20422;-87
2023/12/25 15:33:41;;;;;;;0.57;0.55;;;;;;;;;;5754460;28;20044;-87
2023/12/25 15:36:34;;;;;;;3.30;0.70;;;;;;;;;;5785908;28;20057;-88
2023/12/25 15:39:25;;;;;;;0.70;0.68;;;;;;;;;;5786137;28;20057;-84
2023/12/25 15:42:16;;;;;;;0.90;0.82;;;;;;;;;;5785881;28;20061;-88
2023/12/25 15:45:08;;;;;;;0.68;0.45;;;;;;;;;;5786059;28;20461;-85
2023/12/25 15:47:59;;;;;;;9.98;1.30;;;;;;;;;;5786401;28;20052;-85
2023/12/25 15:50:51;;;;;;;1.13;1.00;;;;;;;;;;5771597;28;20055;-88
2023/12/25 15:53:42;;;;;;;0.30;0.30;;;;;;;;;;5785781;28;20054;-87
2023/12/25 15:56:33;;;;;;;0.68;0.68;;;;;;;;;;5771506;28;20044;-88
2023/12/25 15:59:24;;;;;;;0.90;0.50;;;;;;;;;;5785951;28;20054;-88
2023/12/25 16:02:17;;;;;;;0.20;0.20;;;;;;;;;;5785682;28;20084;-87
2023/12/25 16:05:10;;;;;;;0.77;0.75;;;;;;;;;;5771122;28;20137;-88
2023/12/25 16:08:02;;;;;;;0.55;0.50;;;;;;;;;;5771392;28;20442;-87
2023/12/25 16:10:52;;;;;;;0.50;0.50;;;;;;;;;;5786489;28;20048;-88
2023/12/25 16:13:45;;;;;;;1.65;0.95;;;;;;;;;;5785286;28;20055;-87
2023/12/25 16:16:36;;;;;;;2.72;0.45;;;;;;;;;;5785896;28;20509;-87
2023/12/25 16:19:27;;;;;;;4.25;0.88;;;;;;;;;;5785745;28;20296;-87
2023/12/25 16:22:20;;;;;;;0.95;0.80;;;;;;;;;;5785687;28;20058;-87
2023/12/25 16:25:11;;;;;;;0.25;0.25;;;;;;;;;;5769579;28;20441;-87
2023/12/25 16:28:05;;;;;;;0.30;0.30;;;;;;;;;;5787808;28;20059;-87
2023/12/25 16:30:56;;;;;;;0.50;0.50;;;;;;;;;;5789755;28;20421;-88
2023/12/25 16:33:47;;;;;;;0.80;0.75;;;;;;;;;;5789273;28;20073;-87
2023/12/25 16:36:38;;;;;;;0.63;0.63;;;;;;;;;;5774747;28;20048;-86
2023/12/25 16:39:29;;;;;;;0.40;0.40;;;;;;;;;;5788993;28;20043;-86
2023/12/25 16:42:20;;;;;;;0.15;0.15;;;;;;;;;;5789260;28;20051;-86
2023/12/25 16:45:10;;;;;;;1.20;0.63;;;;;;;;;;5789172;28;20071;-87
2023/12/25 16:48:01;;;;;;;1.55;1.08;;;;;;;;;;5789020;28;20058;-85
2023/12/25 16:50:52;;;;;;;9.90;4.55;;;;;;;;;;5774617;28;20130;-87
2023/12/25 16:53:43;;;;;;;6.97;5.45;;;;;;;;;;5788869;28;20101;-87
2023/12/25 16:56:34;;;;;;;9.35;5.80;;;;;;;;;;5774014;28;20050;-86
2023/12/25 16:59:25;;;;;;;9.98;7.07;;;;;;;;;;5788776;28;20059;-86
2023/12/25 17:02:16;;;;;;;14.35;10.02;;;;;;;;;;5788754;28;20055;-86
2023/12/25 17:05:08;;;;;;;18.27;13.30;;;;;;;;;;5773854;28;20058;-87
2023/12/25 17:07:59;;;;;;;21.60;10.75;;;;;;;;;;5788923;28;20110;-87